Time;durP1;ratioP1;P1;durP2;ratioP2;P2;SDS_P1;SDS_P2;PMS_P1;PMS_P2;Temp;Humidity;BMP_temperature;BMP_pressure;BME280_temperature;BME280_humidity;BME280_pressure;Samples;Min_cycle;Max_cycle;Signal;HPM_P1;HPM_P2
2022/05/07 00:00:31;;;;;;;51.60;35.33;;;12.80;78.60;;;;;;5022105;28;20037;-66
2022/05/07 00:02:56;;;;;;;53.77;35.93;;;12.70;78.90;;;;;;5028297;28;20571;-66
2022/05/07 00:05:22;;;;;;;48.57;34.90;;;12.70;79.00;;;;;;5028696;28;20040;-66
2022/05/07 00:07:48;;;;;;;55.80;36.73;;;12.70;78.80;;;;;;5041998;28;20056;-66
2022/05/07 00:10:15;;;;;;;49.10;35.03;;;12.70;79.20;;;;;;5052845;28;20283;-66
2022/05/07 00:12:41;;;;;;;52.50;33.93;;;12.70;79.00;;;;;;5061695;28;20469;-66
2022/05/07 00:15:08;;;;;;;50.77;33.90;;;12.70;78.70;;;;;;5003908;28;20518;-66
2022/05/07 00:20:17;;;;;;;47.70;33.20;;;12.60;78.60;;;;;;5038806;28;20295;-66
2022/05/07 00:22:43;;;;;;;47.20;33.97;;;12.60;78.70;;;;;;5044249;28;20289;-66
2022/05/07 00:25:10;;;;;;;44.43;33.20;;;12.60;78.70;;;;;;5021106;28;20068;-66
2022/05/07 00:27:36;;;;;;;46.97;33.47;;;12.60;78.70;;;;;;5018324;28;20437;-66
2022/05/07 00:30:04;;;;;;;51.20;36.30;;;12.60;78.80;;;;;;5043924;28;20356;-66
2022/05/07 00:32:29;;;;;;;52.37;35.67;;;12.60;78.70;;;;;;5031457;28;20322;-66
2022/05/07 00:34:55;;;;;;;46.83;33.57;;;12.50;78.60;;;;;;5024742;28;20364;-66
2022/05/07 00:37:21;;;;;;;47.43;34.00;;;12.50;78.50;;;;;;5020958;28;20052;-66
2022/05/07 00:39:48;;;;;;;45.47;33.50;;;12.50;78.50;;;;;;5050079;28;20534;-66
2022/05/07 00:42:15;;;;;;;51.27;35.17;;;12.50;78.50;;;;;;5047974;28;20102;-66
2022/05/07 00:44:41;;;;;;;46.07;33.67;;;12.50;78.70;;;;;;5027351;28;20331;-66
2022/05/07 00:47:10;;;;;;;46.97;33.93;;;12.50;78.60;;;;;;5038763;28;20711;-66
2022/05/07 00:49:36;;;;;;;48.37;34.67;;;12.50;78.50;;;;;;5035903;28;20319;-66
2022/05/07 00:52:02;;;;;;;51.63;36.20;;;12.60;78.60;;;;;;5057684;28;20790;-66
2022/05/07 00:54:28;;;;;;;49.17;33.97;;;12.50;78.80;;;;;;5059120;28;20127;-66
2022/05/07 00:56:54;;;;;;;51.23;34.87;;;12.50;78.80;;;;;;5041351;28;20314;-66
2022/05/07 00:59:20;;;;;;;50.70;34.17;;;12.50;78.80;;;;;;5042724;28;20287;-66
2022/05/07 01:01:46;;;;;;;50.70;35.90;;;12.50;78.90;;;;;;5032213;28;20136;-66
2022/05/07 01:04:11;;;;;;;43.43;32.27;;;12.50;78.90;;;;;;5046201;28;20036;-66
2022/05/07 01:06:38;;;;;;;51.33;36.10;;;12.50;78.90;;;;;;5071405;28;20087;-66
2022/05/07 01:09:04;;;;;;;45.60;33.70;;;12.50;78.80;;;;;;5052327;28;20051;-66
2022/05/07 01:11:31;;;;;;;55.77;36.43;;;12.50;78.70;;;;;;5053176;28;20287;-66
2022/05/07 01:13:57;;;;;;;50.63;36.30;;;12.40;78.80;;;;;;5070012;28;20352;-66
2022/05/07 01:16:23;;;;;;;47.97;34.30;;;12.40;78.80;;;;;;5065087;28;20296;-66
2022/05/07 01:18:49;;;;;;;44.80;33.10;;;12.40;79.00;;;;;;5020346;28;20487;-66
2022/05/07 01:21:17;;;;;;;51.27;34.50;;;12.30;78.90;;;;;;5044683;28;20270;-66
2022/05/07 01:23:44;;;;;;;45.20;32.17;;;12.30;78.90;;;;;;5030734;28;20436;-66
2022/05/07 01:26:11;;;;;;;50.97;35.13;;;12.20;79.00;;;;;;5052164;28;20338;-66
2022/05/07 01:28:38;;;;;;;43.87;33.93;;;12.20;79.30;;;;;;5076416;28;20286;-66
2022/05/07 01:31:04;;;;;;;48.60;34.13;;;12.20;79.10;;;;;;5067271;28;20279;-66
2022/05/07 01:33:34;;;;;;;43.93;32.47;;;12.20;79.10;;;;;;5027259;28;20286;-66
2022/05/07 01:36:10;;;;;;;47.37;34.33;;;12.20;79.10;;;;;;5049187;28;20865;-66
2022/05/07 01:38:35;;;;;;;47.85;34.13;;;12.20;79.00;;;;;;5057915;28;20797;-66
2022/05/07 01:41:03;;;;;;;45.10;31.57;;;12.10;79.00;;;;;;5042283;28;20036;-66
2022/05/07 01:43:29;;;;;;;41.60;32.13;;;12.10;79.10;;;;;;5070381;28;20100;-66
2022/05/07 01:45:55;;;;;;;47.37;34.63;;;12.10;79.10;;;;;;5034521;28;20318;-66
2022/05/07 01:48:21;;;;;;;45.57;33.43;;;12.10;79.20;;;;;;5077443;28;20381;-66
2022/05/07 01:50:47;;;;;;;48.63;33.83;;;12.10;79.30;;;;;;5033029;28;20051;-66
2022/05/07 01:53:16;;;;;;;48.53;34.90;;;12.00;79.40;;;;;;5052376;28;20790;-66
2022/05/07 01:55:43;;;;;;;45.05;33.45;;;12.00;79.60;;;;;;5057949;28;20157;-66
2022/05/07 01:58:11;;;;;;;44.13;34.07;;;12.00;79.50;;;;;;5079588;28;20501;-66
2022/05/07 02:00:37;;;;;;;42.90;32.67;;;12.00;79.60;;;;;;5025573;28;20294;-66
2022/05/07 02:03:03;;;;;;;50.33;35.60;;;11.90;79.80;;;;;;5027740;28;20287;-66
2022/05/07 02:05:29;;;;;;;44.03;31.93;;;11.90;80.00;;;;;;5040569;28;20284;-66
2022/05/07 02:07:55;;;;;;;48.40;34.33;;;11.90;79.90;;;;;;5040078;28;20055;-66
2022/05/07 02:10:22;;;;;;;41.33;32.07;;;11.80;80.40;;;;;;5049692;28;20855;-66
2022/05/07 02:12:49;;;;;;;43.88;32.72;;;11.80;80.00;;;;;;5033653;28;20287;-66
2022/05/07 02:15:15;;;;;;;46.20;32.77;;;11.80;79.90;;;;;;5080586;28;20070;-66
2022/05/07 02:17:40;;;;;;;45.67;33.10;;;11.70;80.00;;;;;;5049453;28;20303;-66
2022/05/07 02:20:08;;;;;;;45.50;33.73;;;11.70;80.20;;;;;;5050603;28;20405;-66
2022/05/07 02:22:34;;;;;;;42.80;31.23;;;11.70;80.10;;;;;;5061422;28;20704;-66
2022/05/07 02:24:59;;;;;;;41.97;33.37;;;11.60;80.00;;;;;;5037975;28;20040;-66
2022/05/07 02:27:26;;;;;;;42.07;31.33;;;11.60;80.20;;;;;;5000809;28;20229;-66
2022/05/07 02:29:52;;;;;;;44.97;32.47;;;11.50;80.10;;;;;;5034689;28;20366;-66
2022/05/07 02:32:18;;;;;;;48.40;34.33;;;11.50;80.10;;;;;;5057254;28;20310;-66
2022/05/07 02:34:44;;;;;;;41.63;31.92;;;11.50;80.20;;;;;;5032863;28;20049;-66
2022/05/07 02:37:10;;;;;;;41.85;31.45;;;11.50;80.50;;;;;;5034465;28;20501;-66
2022/05/07 02:39:36;;;;;;;42.60;31.77;;;11.50;80.40;;;;;;5033925;28;20528;-66
2022/05/07 02:44:47;;;;;;;45.45;33.05;;;11.50;80.30;;;;;;5041190;28;20491;-66
2022/05/07 02:47:12;;;;;;;39.05;30.05;;;11.50;80.70;;;;;;5067346;28;20051;-66
2022/05/07 02:49:38;;;;;;;41.17;31.37;;;11.50;80.70;;;;;;5027180;28;20037;-66
2022/05/07 02:52:04;;;;;;;36.97;29.27;;;11.50;80.40;;;;;;5032021;28;20087;-66
2022/05/07 02:54:30;;;;;;;40.33;31.43;;;11.50;80.20;;;;;;5032619;28;20261;-66
2022/05/07 02:56:56;;;;;;;36.42;30.30;;;11.50;80.20;;;;;;5056442;28;20048;-66
2022/05/07 02:59:22;;;;;;;38.30;30.60;;;11.50;80.10;;;;;;5041347;28;20051;-66
2022/05/07 03:01:48;;;;;;;40.83;30.00;;;11.50;80.30;;;;;;5042107;28;20269;-66
2022/05/07 03:04:14;;;;;;;39.43;31.50;;;11.60;80.10;;;;;;5044485;28;20040;-66
2022/05/07 03:06:40;;;;;;;40.20;30.80;;;11.60;80.10;;;;;;5034916;28;20611;-66
2022/05/07 03:09:06;;;;;;;36.65;30.27;;;11.60;79.90;;;;;;5062109;28;20497;-66
2022/05/07 03:11:36;;;;;;;37.97;29.33;;;11.60;79.90;;;;;;5030570;28;20420;-66
2022/05/07 03:14:02;;;;;;;38.00;30.13;;;11.60;80.00;;;;;;5057566;28;20049;-66
2022/05/07 03:16:28;;;;;;;34.90;28.80;;;11.60;79.80;;;;;;5011265;28;20875;-66
2022/05/07 03:18:54;;;;;;;40.33;31.43;;;11.60;79.60;;;;;;5043711;28;20302;-66
2022/05/07 03:21:19;;;;;;;35.00;28.90;;;11.60;79.60;;;;;;5040962;28;20040;-66
2022/05/07 03:23:48;;;;;;;38.47;30.77;;;11.60;79.40;;;;;;5040645;28;20477;-66
2022/05/07 03:26:14;;;;;;;37.58;28.55;;;11.60;79.50;;;;;;5023106;28;20044;-66
2022/05/07 03:28:40;;;;;;;35.70;29.20;;;11.60;79.50;;;;;;5039294;28;20659;-66
2022/05/07 03:31:06;;;;;;;35.60;30.07;;;11.60;79.30;;;;;;5044383;28;20294;-66
2022/05/07 03:33:32;;;;;;;40.33;30.63;;;11.60;79.20;;;;;;5008721;28;20040;-66
2022/05/07 03:35:58;;;;;;;38.33;29.02;;;11.60;79.20;;;;;;5061590;28;20069;-66
2022/05/07 03:38:24;;;;;;;39.53;31.93;;;11.60;79.10;;;;;;5045336;28;20556;-66
2022/05/07 03:40:50;;;;;;;36.67;29.60;;;11.50;79.20;;;;;;5038237;28;20459;-66
2022/05/07 03:43:16;;;;;;;37.23;30.43;;;11.50;79.10;;;;;;5039582;28;20493;-66
2022/05/07 03:45:42;;;;;;;39.08;31.50;;;11.50;79.00;;;;;;5038408;28;20121;-66
2022/05/07 03:48:09;;;;;;;38.83;28.90;;;11.50;78.90;;;;;;5088993;28;20471;-66
2022/05/07 03:50:35;;;;;;;37.33;29.57;;;11.50;79.00;;;;;;5062532;28;20290;-66
2022/05/07 03:55:44;;;;;;;38.67;30.40;;;11.50;79.00;;;;;;5089685;28;20153;-66
2022/05/07 03:58:11;;;;;;;37.53;29.13;;;11.50;79.10;;;;;;5056372;28;20310;-66
2022/05/07 04:00:39;;;;;;;38.00;31.65;;;11.50;79.20;;;;;;5035553;28;20067;-66
2022/05/07 04:03:05;;;;;;;38.47;31.27;;;11.50;79.70;;;;;;5061414;28;20055;-66
2022/05/07 04:05:31;;;;;;;39.43;31.00;;;11.50;79.70;;;;;;5045846;28;20036;-66
2022/05/07 04:07:57;;;;;;;37.03;29.77;;;11.50;79.50;;;;;;5081917;28;20780;-66
2022/05/07 04:10:23;;;;;;;39.47;32.80;;;11.60;79.60;;;;;;5049360;28;20032;-66
2022/05/07 04:12:51;;;;;;;36.17;29.63;;;11.60;79.60;;;;;;5014987;28;20033;-66
2022/05/07 04:15:17;;;;;;;34.37;29.00;;;11.60;79.70;;;;;;5038665;28;20539;-66
2022/05/07 04:17:43;;;;;;;37.43;30.53;;;11.60;79.60;;;;;;5052491;28;20306;-66
2022/05/07 04:20:10;;;;;;;41.13;31.70;;;11.70;79.60;;;;;;5092139;28;20294;-66
2022/05/07 04:22:35;;;;;;;42.67;33.67;;;11.70;80.10;;;;;;5032754;28;20507;-66
2022/05/07 04:25:11;;;;;;;38.70;31.73;;;11.70;80.20;;;;;;5083807;28;20292;-66
2022/05/07 04:27:37;;;;;;;37.77;31.13;;;11.70;80.30;;;;;;5052656;28;20047;-66
2022/05/07 04:30:03;;;;;;;40.75;32.38;;;11.80;80.10;;;;;;5069297;28;20282;-66
2022/05/07 04:32:29;;;;;;;38.67;31.40;;;11.80;79.90;;;;;;5040133;28;20123;-66
2022/05/07 04:34:55;;;;;;;44.93;32.60;;;11.80;80.00;;;;;;5044257;28;20742;-66
2022/05/07 04:37:25;;;;;;;43.63;32.55;;;11.80;80.10;;;;;;5057179;28;20040;-66
2022/05/07 04:39:51;;;;;;;40.07;32.20;;;11.80;80.10;;;;;;5055581;28;20126;-66
2022/05/07 04:42:17;;;;;;;38.60;31.67;;;11.80;80.00;;;;;;5060018;28;20408;-66
2022/05/07 04:44:43;;;;;;;40.87;32.77;;;11.80;80.00;;;;;;5050566;28;20297;-66
2022/05/07 04:47:08;;;;;;;42.63;32.03;;;11.90;79.90;;;;;;5041097;28;20306;-66
2022/05/07 04:49:37;;;;;;;39.80;32.90;;;11.90;79.90;;;;;;5038129;28;20044;-66
2022/05/07 04:52:05;;;;;;;38.13;30.43;;;11.90;80.00;;;;;;5085074;28;20123;-66
2022/05/07 04:54:32;;;;;;;38.10;31.90;;;12.00;79.90;;;;;;5062289;28;20290;-66
2022/05/07 04:56:58;;;;;;;38.53;31.47;;;12.00;79.90;;;;;;5080811;28;20305;-66
2022/05/07 04:59:23;;;;;;;40.97;32.93;;;12.00;79.90;;;;;;5060984;28;20825;-66
2022/05/07 05:01:49;;;;;;;43.10;33.77;;;12.10;79.90;;;;;;5067959;28;20371;-66
2022/05/07 05:04:15;;;;;;;44.47;32.83;;;12.10;79.80;;;;;;5058131;28;20040;-66
2022/05/07 05:06:41;;;;;;;44.33;34.10;;;12.10;80.10;;;;;;5051893;28;20036;-66
2022/05/07 05:09:08;;;;;;;38.20;30.97;;;12.20;80.10;;;;;;5074791;28;20040;-66
2022/05/07 05:11:35;;;;;;;42.13;34.30;;;12.20;80.00;;;;;;5066442;28;20283;-66
2022/05/07 05:14:01;;;;;;;40.27;31.17;;;12.20;80.10;;;;;;5040474;28;20293;-66
2022/05/07 05:16:27;;;;;;;41.30;32.80;;;12.20;80.00;;;;;;5055375;28;20295;-66
2022/05/07 05:18:52;;;;;;;42.50;32.37;;;12.30;79.90;;;;;;5038357;28;20325;-66
2022/05/07 05:21:18;;;;;;;42.20;34.87;;;12.40;79.90;;;;;;5051728;28;20090;-66
2022/05/07 05:23:46;;;;;;;40.90;34.10;;;12.50;79.80;;;;;;5041114;28;20064;-66
2022/05/07 05:26:15;;;;;;;42.33;32.63;;;12.50;79.80;;;;;;5067197;28;20055;-66
2022/05/07 05:28:43;;;;;;;40.40;32.37;;;12.60;79.80;;;;;;5055488;28;20287;-66
2022/05/07 05:31:09;;;;;;;40.13;33.20;;;12.70;80.00;;;;;;5046021;28;20290;-66
2022/05/07 05:33:35;;;;;;;42.07;32.20;;;12.80;79.80;;;;;;5039698;28;20728;-66
2022/05/07 05:36:00;;;;;;;42.47;33.37;;;12.90;79.60;;;;;;5073202;28;20290;-66
2022/05/07 05:38:26;;;;;;;38.63;32.50;;;13.00;79.50;;;;;;5065629;28;20048;-67
2022/05/07 05:40:52;;;;;;;39.30;30.77;;;13.10;79.30;;;;;;5040181;28;20484;-67
2022/05/07 05:43:18;;;;;;;39.50;32.40;;;13.20;79.00;;;;;;5081594;28;20083;-67
2022/05/07 05:45:44;;;;;;;37.23;32.27;;;13.30;78.90;;;;;;5039257;28;20056;-67
2022/05/07 05:48:10;;;;;;;38.33;31.70;;;13.30;78.90;;;;;;5050279;28;20274;-66
2022/05/07 05:50:35;;;;;;;43.03;33.53;;;13.40;78.80;;;;;;5052301;28;20843;-66
2022/05/07 05:53:01;;;;;;;40.50;32.80;;;13.50;78.80;;;;;;5060320;28;20075;-67
2022/05/07 05:55:27;;;;;;;36.77;31.77;;;13.50;78.40;;;;;;5044717;28;20129;-67
2022/05/07 05:57:53;;;;;;;42.03;32.37;;;13.50;78.40;;;;;;5053143;28;20811;-67
2022/05/07 06:00:19;;;;;;;37.93;32.27;;;13.70;78.50;;;;;;5045469;28;20133;-67
2022/05/07 06:02:45;;;;;;;38.03;31.50;;;13.90;78.10;;;;;;5049242;28;20081;-67
2022/05/07 06:05:12;;;;;;;40.83;32.20;;;14.30;77.70;;;;;;5054524;28;20286;-67
2022/05/07 06:07:37;;;;;;;39.73;31.93;;;14.80;76.70;;;;;;5037589;28;20037;-67
2022/05/07 06:10:05;;;;;;;38.53;32.77;;;15.20;75.20;;;;;;5054657;28;20887;-67
2022/05/07 06:12:31;;;;;;;35.87;29.63;;;15.50;73.50;;;;;;5044251;28;20393;-67
2022/05/07 06:14:58;;;;;;;33.53;29.80;;;15.60;72.90;;;;;;5029463;28;20307;-67
2022/05/07 06:17:25;;;;;;;36.17;31.83;;;15.70;72.50;;;;;;5035082;28;20690;-67
2022/05/07 06:19:51;;;;;;;37.50;31.13;;;15.80;72.20;;;;;;5064483;28;20290;-67
2022/05/07 06:22:17;;;;;;;37.57;31.00;;;15.90;71.30;;;;;;5042118;28;20285;-67
2022/05/07 06:27:28;;;;;;;35.58;29.65;;;16.20;70.50;;;;;;5051490;28;20379;-67
2022/05/07 06:29:56;;;;;;;37.63;31.37;;;16.40;69.30;;;;;;5048552;28;20044;-67
2022/05/07 06:32:23;;;;;;;43.73;34.80;;;16.40;69.40;;;;;;5037266;28;20109;-67
2022/05/07 06:34:49;;;;;;;47.53;36.07;;;16.60;69.00;;;;;;5057970;28;20719;-67
2022/05/07 06:37:14;;;;;;;49.50;37.17;;;16.90;68.60;;;;;;5030205;28;20299;-67
2022/05/07 06:39:40;;;;;;;52.50;38.47;;;17.20;68.40;;;;;;5081877;28;20044;-67
2022/05/07 06:42:07;;;;;;;57.37;41.33;;;17.40;68.50;;;;;;5037886;28;20028;-67
2022/05/07 06:44:33;;;;;;;59.10;42.53;;;17.60;68.20;;;;;;5087795;28;20052;-67
2022/05/07 06:46:58;;;;;;;53.60;40.97;;;17.80;67.70;;;;;;5059163;28;20332;-67
2022/05/07 06:49:24;;;;;;;63.17;45.13;;;17.70;67.80;;;;;;5052760;28;20049;-67
2022/05/07 06:51:50;;;;;;;64.57;43.93;;;17.50;68.10;;;;;;5046404;28;20492;-67
2022/05/07 06:54:17;;;;;;;55.40;40.53;;;17.20;68.50;;;;;;5066974;28;20790;-67
2022/05/07 06:56:43;;;;;;;57.90;39.77;;;17.10;68.70;;;;;;5063234;28;20692;-67
2022/05/07 06:59:12;;;;;;;52.60;40.53;;;17.00;68.80;;;;;;5065620;28;20294;-67
2022/05/07 07:01:37;;;;;;;52.37;39.10;;;17.10;68.10;;;;;;5054289;28;20496;-67
2022/05/07 07:04:03;;;;;;;52.70;38.93;;;17.20;68.30;;;;;;5059240;28;20362;-67
2022/05/07 07:06:29;;;;;;;49.67;36.03;;;17.20;67.90;;;;;;5034770;28;20029;-67
2022/05/07 07:08:56;;;;;;;47.47;36.50;;;17.20;67.60;;;;;;5039750;28;20044;-67
2022/05/07 07:11:22;;;;;;;47.93;35.77;;;17.00;67.50;;;;;;5043722;28;20652;-67
2022/05/07 07:13:49;;;;;;;50.27;38.27;;;16.90;67.40;;;;;;5058278;28;20332;-67
2022/05/07 07:16:15;;;;;;;49.03;37.60;;;16.90;67.50;;;;;;5050793;28;20286;-67
2022/05/07 07:18:41;;;;;;;49.00;38.03;;;16.80;67.80;;;;;;5069164;28;20306;-67
2022/05/07 07:21:07;;;;;;;51.03;38.93;;;16.80;67.90;;;;;;5045115;28;20296;-67
2022/05/07 07:23:32;;;;;;;52.67;41.63;;;16.80;68.00;;;;;;5058804;28;20036;-67
2022/05/07 07:25:58;;;;;;;51.60;41.10;;;16.80;68.20;;;;;;5052956;28;20041;-67
2022/05/07 07:28:24;;;;;;;49.93;38.73;;;16.80;68.20;;;;;;5052740;28;20641;-67
2022/05/07 07:30:51;;;;;;;50.30;38.97;;;16.90;68.50;;;;;;5057747;28;20058;-68
2022/05/07 07:33:16;;;;;;;51.17;40.10;;;16.90;68.20;;;;;;5053725;28;20554;-67
2022/05/07 07:35:43;;;;;;;56.13;39.80;;;16.90;68.40;;;;;;5087139;28;20295;-67
2022/05/07 07:38:10;;;;;;;51.23;37.93;;;17.00;68.20;;;;;;5070031;28;20502;-67
2022/05/07 07:40:36;;;;;;;52.10;38.03;;;17.00;68.10;;;;;;5059413;28;20302;-67
2022/05/07 07:43:02;;;;;;;47.93;37.30;;;17.00;67.90;;;;;;5045205;28;20325;-67
2022/05/07 07:48:12;;;;;;;51.28;36.50;;;17.10;67.60;;;;;;5070547;28;20127;-67
2022/05/07 07:50:38;;;;;;;46.87;37.13;;;17.10;67.70;;;;;;5049266;28;20123;-68
2022/05/07 07:53:11;;;;;;;48.00;37.30;;;17.20;67.50;;;;;;5082475;28;20036;-67
2022/05/07 07:55:38;;;;;;;49.90;35.87;;;17.30;66.80;;;;;;5055086;28;20366;-67
2022/05/07 07:58:06;;;;;;;50.00;35.97;;;17.40;67.00;;;;;;5029776;28;20310;-67
2022/05/07 08:00:32;;;;;;;48.43;36.27;;;17.40;66.80;;;;;;5067938;28;20377;-68
2022/05/07 08:03:00;;;;;;;46.53;34.27;;;17.50;66.90;;;;;;5042929;28;20286;-67
2022/05/07 08:05:28;;;;;;;45.10;31.53;;;17.60;66.40;;;;;;5030295;28;20766;-67
2022/05/07 08:13:24;;;;;;;47.47;33.00;;;18.00;66.00;;;;;;5058456;28;20098;-67
2022/05/07 08:15:50;;;;;;;40.37;30.17;;;18.20;65.50;;;;;;5054356;28;20291;-68
2022/05/07 08:18:16;;;;;;;41.23;30.00;;;18.40;64.60;;;;;;5058066;28;20512;-68
2022/05/07 08:20:43;;;;;;;49.63;34.57;;;18.50;64.00;;;;;;5040707;28;20068;-68
2022/05/07 08:23:09;;;;;;;44.30;34.33;;;18.60;63.60;;;;;;5034585;28;20289;-68
2022/05/07 08:25:36;;;;;;;45.87;33.60;;;18.80;63.40;;;;;;5064961;28;20287;-68
2022/05/07 08:28:02;;;;;;;44.37;32.73;;;18.90;63.30;;;;;;5059678;28;20286;-68
2022/05/07 08:30:28;;;;;;;45.23;33.73;;;19.00;62.50;;;;;;5059396;28;20404;-67
2022/05/07 08:32:54;;;;;;;46.40;35.17;;;19.00;62.50;;;;;;5056269;28;20768;-67
2022/05/07 08:35:20;;;;;;;48.87;36.20;;;19.00;62.00;;;;;;5018676;28;20299;-68
2022/05/07 08:37:46;;;;;;;45.97;36.60;;;19.10;61.90;;;;;;5053841;28;20123;-67
2022/05/07 08:40:16;;;;;;;49.90;38.23;;;19.00;62.10;;;;;;5085034;28;20366;-67
2022/05/07 08:42:42;;;;;;;46.10;36.13;;;19.00;62.30;;;;;;5036110;28;20094;-67
2022/05/07 08:45:09;;;;;;;48.97;37.30;;;19.00;62.90;;;;;;5088124;28;20299;-68
2022/05/07 08:47:35;;;;;;;48.00;36.43;;;19.00;62.40;;;;;;5086382;28;20794;-68
2022/05/07 08:50:01;;;;;;;45.27;34.37;;;18.90;62.00;;;;;;5061139;28;20310;-67
2022/05/07 08:52:28;;;;;;;43.40;33.60;;;18.90;61.90;;;;;;5075241;28;20454;-67
2022/05/07 08:54:53;;;;;;;43.67;31.93;;;18.90;62.30;;;;;;5040332;28;20033;-67
2022/05/07 08:57:19;;;;;;;45.33;32.03;;;19.00;62.10;;;;;;5064279;28;20359;-67
2022/05/07 08:59:51;;;;;;;45.23;31.73;;;19.10;61.30;;;;;;5045691;28;20087;-67
2022/05/07 09:02:17;;;;;;;37.80;30.30;;;19.10;60.80;;;;;;5045976;28;20086;-67
2022/05/07 09:04:54;;;;;;;42.80;31.37;;;19.10;61.10;;;;;;5059689;28;20286;-67
2022/05/07 09:07:20;;;;;;;40.90;31.57;;;19.20;60.90;;;;;;5051723;28;20056;-67
2022/05/07 09:09:50;;;;;;;44.63;32.50;;;19.10;61.10;;;;;;5040440;28;20283;-67
2022/05/07 09:12:28;;;;;;;44.83;34.40;;;19.10;61.40;;;;;;5077223;28;20119;-67
2022/05/07 09:14:59;;;;;;;49.77;36.23;;;19.00;61.30;;;;;;5031926;28;20056;-67
2022/05/07 09:17:25;;;;;;;50.57;36.90;;;18.90;61.70;;;;;;5054845;28;20063;-68
2022/05/07 09:19:51;;;;;;;48.67;35.30;;;18.90;62.30;;;;;;5036110;28;20045;-67
2022/05/07 09:22:17;;;;;;;50.10;33.33;;;19.00;62.50;;;;;;5049718;28;20453;-68
2022/05/07 09:24:53;;;;;;;44.73;30.10;;;19.00;61.70;;;;;;5082312;28;20305;-67
2022/05/07 09:27:19;;;;;;;36.40;26.83;;;18.90;61.00;;;;;;5066485;28;20488;-68
2022/05/07 09:29:45;;;;;;;41.87;30.37;;;18.80;60.20;;;;;;5069490;28;20289;-68
2022/05/07 09:32:15;;;;;;;43.70;30.17;;;18.60;60.30;;;;;;5020011;28;20040;-68
2022/05/07 09:37:35;;;;;;;39.60;30.20;;;18.40;61.40;;;;;;5072983;28;20406;-67
2022/05/07 09:40:09;;;;;;;40.83;30.40;;;18.50;61.60;;;;;;5040379;28;20040;-67
2022/05/07 09:42:36;;;;;;;34.13;26.25;;;18.60;61.50;;;;;;5077191;28;20312;-67
2022/05/07 09:45:06;;;;;;;36.73;26.37;;;18.70;61.70;;;;;;5075016;28;20135;-67
2022/05/07 09:47:33;;;;;;;32.70;25.80;;;18.90;61.20;;;;;;5065092;28;20359;-67
2022/05/07 09:58:15;;;;;;;37.87;29.53;;;18.90;60.60;;;;;;5062381;28;20299;-68
2022/05/07 10:01:10;;;;;;;40.27;27.33;;;18.80;60.60;;;;;;5055746;28;20287;-68
2022/05/07 10:03:47;;;;;;;38.90;26.60;;;18.60;60.70;;;;;;5056114;28;20091;-68
2022/05/07 10:06:52;;;;;;;33.60;24.83;;;18.20;61.80;;;;;;5061158;28;20048;-68
2022/05/07 10:09:42;;;;;;;36.67;24.10;;;18.00;62.30;;;;;;5037617;28;20385;-68
2022/05/07 10:12:09;;;;;;;35.97;25.33;;;17.90;63.00;;;;;;5046775;28;20294;-68
2022/05/07 10:14:35;;;;;;;38.03;26.33;;;17.80;62.90;;;;;;5045447;28;20293;-68
2022/05/07 10:17:11;;;;;;;39.53;28.13;;;17.70;63.20;;;;;;5030571;28;20802;-68
2022/05/07 10:19:45;;;;;;;41.00;28.63;;;17.70;63.30;;;;;;5079178;28;20488;-68
2022/05/07 10:22:23;;;;;;;45.73;31.80;;;17.80;63.60;;;;;;5065860;28;20279;-68
2022/05/07 10:25:04;;;;;;;46.73;33.50;;;17.90;63.70;;;;;;5082771;28;20302;-68
2022/05/07 10:27:38;;;;;;;47.63;34.27;;;18.00;63.40;;;;;;5053711;28;20738;-68
2022/05/07 10:30:19;;;;;;;50.60;36.17;;;18.10;63.40;;;;;;5056767;28;20691;-67
2022/05/07 10:33:02;;;;;;;52.10;35.17;;;18.30;63.00;;;;;;5052444;28;20278;-67
2022/05/07 10:35:41;;;;;;;48.33;35.47;;;18.50;62.80;;;;;;5057283;28;20412;-67
2022/05/07 10:38:08;;;;;;;50.83;35.37;;;18.60;62.20;;;;;;5052649;28;20304;-67
2022/05/07 10:40:34;;;;;;;50.47;34.97;;;18.70;61.40;;;;;;5057881;28;20290;-67
2022/05/07 10:43:00;;;;;;;41.77;31.00;;;18.70;61.00;;;;;;5032473;28;20282;-67
2022/05/07 10:45:29;;;;;;;45.57;30.60;;;18.50;61.30;;;;;;5040823;28;20093;-67
2022/05/07 10:47:55;;;;;;;41.77;29.13;;;18.50;61.30;;;;;;5094036;28;20349;-67
2022/05/07 10:50:22;;;;;;;37.70;25.87;;;18.50;61.60;;;;;;5056802;28;20291;-69
2022/05/07 10:52:56;;;;;;;30.83;21.40;;;18.70;61.30;;;;;;5075364;28;20621;-67
2022/05/07 10:55:26;;;;;;;18.10;13.00;;;19.00;60.40;;;;;;5044414;28;20279;-67
2022/05/07 10:57:55;;;;;;;16.47;10.97;;;19.10;58.90;;;;;;5063693;28;20734;-67
2022/05/07 11:00:24;;;;;;;18.80;11.73;;;19.10;58.20;;;;;;5040404;28;20040;-67
2022/05/07 11:02:57;;;;;;;15.97;10.90;;;19.30;57.90;;;;;;5057024;28;20290;-67
2022/05/07 11:05:33;;;;;;;14.77;9.13;;;19.40;57.70;;;;;;5077605;28;20156;-67
2022/05/07 11:08:02;;;;;;;17.13;9.57;;;19.60;57.20;;;;;;5060661;28;20286;-67
2022/05/07 11:10:29;;;;;;;15.03;9.27;;;19.70;56.10;;;;;;5062850;28;20048;-67
2022/05/07 11:13:08;;;;;;;15.27;10.10;;;19.70;56.20;;;;;;5056240;28;20048;-68
2022/05/07 11:15:34;;;;;;;16.83;12.43;;;19.70;57.20;;;;;;5092760;28;20672;-68
2022/05/07 11:17:59;;;;;;;16.90;12.30;;;19.70;57.30;;;;;;5058898;28;20044;-68
2022/05/07 11:20:32;;;;;;;17.13;12.40;;;19.50;57.50;;;;;;5057838;28;20439;-69
2022/05/07 11:23:00;;;;;;;17.33;12.47;;;19.60;58.60;;;;;;5058749;28;20313;-68
2022/05/07 11:25:26;;;;;;;19.87;14.03;;;19.80;58.80;;;;;;5033522;28;20391;-68
2022/05/07 11:27:53;;;;;;;21.20;13.97;;;20.00;57.70;;;;;;5055382;28;20089;-68
2022/05/07 11:30:19;;;;;;;21.00;13.57;;;20.20;57.10;;;;;;5036243;28;20043;-68
2022/05/07 11:32:45;;;;;;;20.60;14.63;;;20.20;56.50;;;;;;5055040;28;20044;-69
2022/05/07 11:35:11;;;;;;;19.97;14.93;;;20.30;56.30;;;;;;5027980;28;20037;-68
2022/05/07 11:37:46;;;;;;;20.47;14.37;;;20.20;56.20;;;;;;5045714;28;20144;-68
2022/05/07 11:40:14;;;;;;;21.93;15.30;;;20.20;57.00;;;;;;5059354;28;20075;-68
2022/05/07 11:42:46;;;;;;;20.10;14.27;;;20.20;56.60;;;;;;5043920;28;20402;-68
2022/05/07 11:45:26;;;;;;;20.63;15.00;;;20.30;56.90;;;;;;5038450;28;20113;-68
2022/05/07 11:48:13;;;;;;;21.57;14.47;;;20.50;55.70;;;;;;5069251;28;20044;-68
2022/05/07 11:51:02;;;;;;;20.07;15.23;;;20.70;55.60;;;;;;5072027;28;20036;-68
2022/05/07 11:53:35;;;;;;;19.23;14.63;;;20.60;55.20;;;;;;5051850;28;20044;-68
2022/05/07 11:56:09;;;;;;;21.50;13.47;;;20.70;55.40;;;;;;5085275;28;20056;-68
2022/05/07 11:58:40;;;;;;;19.20;13.27;;;20.80;54.50;;;;;;5037760;28;20497;-68
2022/05/07 12:01:20;;;;;;;20.17;12.57;;;21.00;54.70;;;;;;5043437;28;20401;-68
2022/05/07 12:03:47;;;;;;;16.23;11.87;;;21.30;54.30;;;;;;5076157;28;20044;-68
2022/05/07 12:06:23;;;;;;;19.17;13.03;;;21.50;52.90;;;;;;5031430;28;20123;-68
2022/05/07 12:08:49;;;;;;;15.77;11.57;;;21.40;51.90;;;;;;5058231;28;20434;-68
2022/05/07 12:11:15;;;;;;;16.80;12.03;;;21.10;52.50;;;;;;5055236;28;20530;-68
2022/05/07 12:13:40;;;;;;;14.23;10.13;;;20.90;53.70;;;;;;5039900;28;20131;-68
2022/05/07 12:18:52;;;;;;;16.80;10.17;;;20.50;53.80;;;;;;5037879;28;20249;-68
2022/05/07 12:29:48;;;;;;;16.87;12.07;;;20.40;54.70;;;;;;5054670;28;20111;-68
2022/05/07 12:32:00;;;;;;;16.67;11.97;;;20.20;56.30;;;;;;5068084;28;20054;-68
2022/05/07 12:34:26;;;;;;;14.23;10.07;;;20.60;55.60;;;;;;5038084;28;20063;-68
2022/05/07 12:36:52;;;;;;;13.87;10.27;;;20.70;53.90;;;;;;5065125;28;20040;-68
2022/05/07 12:39:18;;;;;;;12.70;9.20;;;20.60;53.20;;;;;;5055539;28;20561;-68
2022/05/07 12:41:44;;;;;;;12.40;8.67;;;20.30;53.20;;;;;;5033839;28;20044;-68
2022/05/07 12:44:11;;;;;;;13.10;9.70;;;20.20;53.70;;;;;;5038586;28;20631;-68
2022/05/07 12:46:36;;;;;;;13.27;9.33;;;20.10;54.40;;;;;;5043119;28;20055;-68
2022/05/07 12:49:02;;;;;;;14.47;9.93;;;20.10;54.80;;;;;;5042095;28;20320;-68
2022/05/07 12:51:28;;;;;;;15.47;10.70;;;20.10;54.70;;;;;;5035447;28;20127;-68
2022/05/07 12:53:54;;;;;;;13.40;10.60;;;20.10;54.90;;;;;;5042610;28;20098;-68
2022/05/07 12:56:22;;;;;;;13.40;9.67;;;20.00;55.00;;;;;;5021525;28;20036;-68
2022/05/07 12:58:49;;;;;;;14.87;9.70;;;20.00;55.60;;;;;;5077807;28;20050;-68
2022/05/07 13:01:15;;;;;;;13.80;10.93;;;20.00;55.70;;;;;;5020177;28;20549;-68
2022/05/07 13:03:41;;;;;;;15.90;11.03;;;20.00;55.60;;;;;;5073078;28;20040;-68
2022/05/07 13:06:06;;;;;;;18.77;10.87;;;19.90;55.50;;;;;;5043502;28;20483;-68
2022/05/07 13:08:32;;;;;;;15.40;10.60;;;19.80;55.90;;;;;;5049347;28;20496;-68
2022/05/07 13:10:58;;;;;;;15.00;10.87;;;20.00;55.60;;;;;;5082661;28;20147;-68